Time;durP1;ratioP1;P1;durP2;ratioP2;P2;SDS_P1;SDS_P2;PMS_P1;PMS_P2;Temp;Humidity;BMP_temperature;BMP_pressure;BME280_temperature;BME280_humidity;BME280_pressure;Samples;Min_cycle;Max_cycle;Signal;HPM_P1;HPM_P2
2022/08/01 00:00:07;;;;;;;4.03;2.30;;;;;;;27.66;44.04;100890.91;5012598;28;20069;-77
2022/08/01 00:02:37;;;;;;;4.68;2.72;;;;;;;27.67;43.93;100887.19;5012553;28;20042;-76
2022/08/01 00:05:07;;;;;;;4.22;2.80;;;;;;;27.67;44.22;100887.19;5012076;28;20046;-77
2022/08/01 00:07:35;;;;;;;5.15;2.63;;;;;;;27.68;44.31;100886.16;5011725;28;20053;-76
2022/08/01 00:10:04;;;;;;;3.80;2.53;;;;;;;27.71;44.01;100895.81;5011971;28;20038;-76
2022/08/01 00:12:31;;;;;;;3.92;2.67;;;;;;;27.71;44.10;100887.63;5012860;28;20053;-76
2022/08/01 00:14:59;;;;;;;4.85;2.70;;;;;;;27.72;44.05;100889.34;5011449;28;20386;-76
2022/08/01 00:17:26;;;;;;;4.13;2.67;;;;;;;27.72;44.36;100883.91;5012297;28;20054;-76
2022/08/01 00:19:53;;;;;;;4.25;2.60;;;;;;;27.72;44.01;100887.47;5012568;28;20053;-76
2022/08/01 00:22:24;;;;;;;4.25;2.80;;;;;;;27.73;44.08;100885.59;5011972;28;20053;-76
2022/08/01 00:24:51;;;;;;;3.17;2.58;;;;;;;27.74;44.53;100887.31;5010133;28;20046;-76
2022/08/01 00:27:18;;;;;;;3.35;2.47;;;;;;;27.74;44.63;100892.75;5012121;28;20046;-76
2022/08/01 00:29:46;;;;;;;6.43;2.47;;;;;;;27.75;44.55;100892.59;5012437;28;20050;-76
2022/08/01 00:32:33;;;;;;;3.63;2.42;;;;;;;27.75;44.53;100883.53;5012361;28;20142;-76
2022/08/01 00:35:01;;;;;;;4.20;2.63;;;;;;;27.75;44.51;100891.72;5012142;28;20050;-77
2022/08/01 00:37:28;;;;;;;3.92;2.40;;;;;;;27.76;44.53;100882.53;5007518;28;20043;-76
2022/08/01 00:39:56;;;;;;;2.55;1.90;;;;;;;27.76;44.70;100893.44;4991575;28;20057;-77
2022/08/01 00:42:23;;;;;;;3.47;2.53;;;;;;;27.77;44.79;100886.94;5037983;28;20051;-76
2022/08/01 00:44:51;;;;;;;8.25;2.58;;;;;;;27.76;44.56;100887.97;5115253;28;20050;-76
2022/08/01 00:47:18;;;;;;;10.18;2.85;;;;;;;27.77;44.55;100895.09;5115142;28;20491;-76
2022/08/01 00:49:45;;;;;;;3.22;2.40;;;;;;;27.77;44.79;100890.50;5115343;28;20036;-76
2022/08/01 00:52:13;;;;;;;7.55;2.72;;;;;;;27.76;44.61;100891.53;5115791;28;20475;-76
2022/08/01 00:54:40;;;;;;;4.63;2.53;;;;;;;27.78;44.86;100891.34;5114845;28;20047;-76
2022/08/01 00:57:08;;;;;;;5.40;2.25;;;;;;;27.78;44.63;100888.63;5114744;28;20055;-77
2022/08/01 00:59:38;;;;;;;4.90;2.90;;;;;;;27.77;44.85;100898.66;5115574;28;20047;-76
2022/08/01 01:02:07;;;;;;;3.08;2.53;;;;;;;27.79;44.60;100898.47;5115186;28;20478;-76
2022/08/01 01:04:42;;;;;;;4.13;2.70;;;;;;;27.79;44.61;100895.75;5114227;28;20498;-76
2022/08/01 01:07:23;;;;;;;4.50;2.97;;;;;;;27.79;44.39;100902.06;5114512;28;20040;-76
2022/08/01 01:09:58;;;;;;;3.08;2.35;;;;;;;27.78;44.62;100903.06;5008856;28;20042;-76
2022/08/01 01:12:51;;;;;;;;;;;;;;;;;;;;;
2022/08/01 01:15:57;;;;;;;3.88;2.28;;;;;;;27.78;44.84;100902.22;5010344;28;20072;-76
2022/08/01 01:18:44;;;;;;;3.15;2.33;;;;;;;27.78;44.88;100902.22;4999131;28;20050;-76
2022/08/01 01:21:18;;;;;;;3.50;2.75;;;;;;;27.78;44.66;100903.06;5012046;28;20057;-76
2022/08/01 01:24:03;;;;;;;2.95;2.15;;;;;;;27.79;44.59;100903.91;5011056;28;20046;-76
2022/08/01 01:26:45;;;;;;;3.35;2.50;;;;;;;27.78;44.74;100900.34;5094157;28;20040;-76
2022/08/01 01:29:20;;;;;;;4.43;2.47;;;;;;;27.79;44.96;100898.47;5094417;28;20048;-76
2022/08/01 01:31:54;;;;;;;3.83;2.60;;;;;;;27.80;45.08;100902.91;5092435;28;20059;-76
2022/08/01 01:34:23;;;;;;;3.50;2.40;;;;;;;27.79;44.78;100895.75;5093737;28;20044;-76
2022/08/01 01:36:54;;;;;;;2.90;2.20;;;;;;;27.80;44.94;100905.63;5094052;28;20043;-76
2022/08/01 01:39:25;;;;;;;3.03;2.28;;;;;;;27.80;44.91;100902.91;5012168;28;20046;-77
2022/08/01 01:41:54;;;;;;;3.08;2.30;;;;;;;27.80;44.89;100905.63;5011326;28;20057;-77
2022/08/01 01:44:22;;;;;;;2.88;2.42;;;;;;;27.80;45.30;100898.31;5010847;28;20042;-76
2022/08/01 01:46:51;;;;;;;4.20;2.50;;;;;;;27.81;45.28;100899.13;5011223;28;20401;-76
2022/08/01 01:49:26;;;;;;;2.95;2.50;;;;;;;27.81;45.22;100901.88;5010845;28;20397;-79
2022/08/01 01:51:57;;;;;;;3.75;2.42;;;;;;;27.82;45.05;100898.09;5010030;28;20401;-76
2022/08/01 01:54:42;;;;;;;2.80;2.42;;;;;;;27.82;44.95;100904.38;5011365;28;20042;-76
2022/08/01 01:57:12;;;;;;;4.47;2.58;;;;;;;27.82;45.21;100898.94;5010796;28;20054;-76
2022/08/01 01:59:41;;;;;;;3.28;2.60;;;;;;;27.83;45.48;100902.50;5010987;28;20054;-76
2022/08/01 02:02:10;;;;;;;3.95;2.38;;;;;;;27.82;45.19;100907.09;5009781;28;20045;-76
2022/08/01 02:04:43;;;;;;;3.65;2.22;;;;;;;27.83;45.69;100903.38;5010220;28;20046;-75
2022/08/01 02:07:17;;;;;;;3.47;2.65;;;;;;;27.83;45.67;100907.94;5010764;28;20046;-76
2022/08/01 02:09:46;;;;;;;3.08;2.30;;;;;;;27.83;45.67;100899.78;5009945;28;20387;-77
2022/08/01 02:12:17;;;;;;;3.45;2.30;;;;;;;27.84;45.47;100898.78;5009757;28;20049;-77
2022/08/01 02:14:46;;;;;;;5.50;2.80;;;;;;;27.85;45.18;100903.19;5009572;28;20041;-77
2022/08/01 02:17:18;;;;;;;3.83;2.72;;;;;;;27.83;45.64;100900.66;5010544;28;20503;-76
2022/08/01 02:19:46;;;;;;;3.20;2.42;;;;;;;27.83;45.43;100905.22;5010915;28;20524;-77
2022/08/01 02:22:25;;;;;;;4.20;2.45;;;;;;;27.84;45.60;100898.78;5010336;28;20053;-76
2022/08/01 02:25:10;;;;;;;3.72;2.65;;;;;;;27.83;45.68;100903.38;5010647;28;20053;-77
2022/08/01 02:27:43;;;;;;;3.15;2.47;;;;;;;27.83;45.28;100908.81;5009232;28;20062;-77
2022/08/01 02:30:13;;;;;;;3.17;2.30;;;;;;;27.83;45.60;100902.50;5010349;28;20508;-77
2022/08/01 02:32:47;;;;;;;3.60;2.72;;;;;;;27.84;45.65;100902.34;5010482;28;20135;-76
2022/08/01 02:35:21;;;;;;;3.47;2.25;;;;;;;27.84;45.41;100901.50;5009779;28;20504;-76
2022/08/01 02:37:49;;;;;;;3.45;2.47;;;;;;;27.84;45.82;100898.78;5003352;28;20038;-76
2022/08/01 02:40:18;;;;;;;4.15;2.80;;;;;;;27.84;45.49;100905.06;4990965;28;20046;-76
2022/08/01 02:42:49;;;;;;;3.40;2.33;;;;;;;27.84;45.30;100904.22;5024418;28;20411;-76
2022/08/01 02:45:24;;;;;;;3.22;2.40;;;;;;;27.84;45.38;100906.94;5113320;28;20051;-76
2022/08/01 02:47:57;;;;;;;3.65;2.50;;;;;;;27.85;45.37;100905.91;5116950;28;20043;-76
2022/08/01 02:50:26;;;;;;;;;;;;;;;27.85;45.78;100905.91;5118345;28;20051;-76
2022/08/01 02:52:56;;;;;;;3.20;2.50;;;;;;;27.84;45.49;100905.06;5117647;28;19926;-76
2022/08/01 02:55:25;;;;;;;3.53;2.20;;;;;;;27.84;45.56;100898.78;5117404;28;20054;-76
2022/08/01 02:57:55;;;;;;;3.65;2.60;;;;;;;27.85;45.72;100903.19;5117014;28;20495;-76
2022/08/01 03:00:28;;;;;;;4.03;2.55;;;;;;;27.84;45.90;100910.50;5116671;28;20402;-76
2022/08/01 03:02:57;;;;;;;2.72;2.30;;;;;;;27.84;46.01;100902.34;5117127;28;20054;-76
2022/08/01 03:05:25;;;;;;;3.60;2.53;;;;;;;27.84;45.90;100905.06;5117305;28;20035;-75
2022/08/01 03:07:55;;;;;;;3.20;2.35;;;;;;;27.85;46.07;100903.19;5117070;28;20050;-76
2022/08/01 03:10:30;;;;;;;5.53;2.70;;;;;;;27.84;45.92;100910.50;5066591;28;20038;-75
2022/08/01 03:13:02;;;;;;;2.83;2.53;;;;;;;27.84;46.45;100913.22;5012788;28;20049;-75
2022/08/01 03:15:31;;;;;;;3.67;2.28;;;;;;;27.84;46.24;100915.09;5012276;28;20050;-76
2022/08/01 03:18:00;;;;;;;3.42;2.45;;;;;;;27.84;46.46;100920.53;5013145;28;20046;-76
2022/08/01 03:20:32;;;;;;;4.40;2.55;;;;;;;27.84;46.16;100912.38;5013037;28;20049;-78
2022/08/01 03:23:03;;;;;;;3.50;2.60;;;;;;;27.84;46.19;100915.94;5013251;28;20054;-76
2022/08/01 03:25:31;;;;;;;3.35;2.42;;;;;;;27.86;46.29;100913.03;5068169;28;20047;-79
2022/08/01 03:28:03;;;;;;;5.50;3.72;;;;;;;27.83;46.01;100913.38;5114974;28;20048;-76
2022/08/01 03:30:32;;;;;;;4.15;3.10;;;;;;;27.73;45.43;100915.50;5116693;28;20047;-77
2022/08/01 03:32:59;;;;;;;5.25;4.13;;;;;;;27.66;45.05;100917.28;5116968;28;20047;-76
2022/08/01 03:35:32;;;;;;;3.92;3.30;;;;;;;27.56;44.94;100923.84;5116508;28;20051;-76
2022/08/01 03:38:02;;;;;;;4.15;3.60;;;;;;;27.52;44.77;100917.06;5072866;28;20045;-76
2022/08/01 03:40:49;;;;;;;5.57;3.72;;;;;;;27.47;44.56;100929.53;5011854;28;20046;-76
2022/08/01 03:43:24;;;;;;;5.43;3.50;;;;;;;27.41;43.88;100916.66;5013443;28;20052;-76
2022/08/01 03:45:53;;;;;;;5.07;3.60;;;;;;;27.39;44.15;100918.72;5012874;28;20057;-76
2022/08/01 03:48:27;;;;;;;8.15;3.63;;;;;;;27.39;44.19;100925.00;5011427;28;20045;-76
2022/08/01 03:50:58;;;;;;;4.80;3.08;;;;;;;27.38;44.27;100920.59;5013385;28;20057;-76
2022/08/01 03:53:29;;;;;;;4.75;3.20;;;;;;;27.38;43.91;100922.47;5012796;28;20042;-76
2022/08/01 03:56:01;;;;;;;4.97;3.03;;;;;;;27.37;43.87;100921.63;5012832;28;20057;-77
2022/08/01 03:58:30;;;;;;;4.63;3.00;;;;;;;27.38;43.86;100923.31;5011962;28;20481;-76
2022/08/01 04:00:58;;;;;;;4.30;3.10;;;;;;;27.37;43.87;100929.78;5012447;28;20054;-76
2022/08/01 04:03:26;;;;;;;4.00;3.30;;;;;;;27.35;43.88;100927.25;5012275;28;20053;-76
2022/08/01 04:05:53;;;;;;;3.58;3.28;;;;;;;27.36;44.18;100933.53;5012516;28;20042;-77
2022/08/01 04:08:21;;;;;;;3.72;3.30;;;;;;;27.35;44.51;100934.56;5012866;28;20046;-76
2022/08/01 04:10:58;;;;;;;5.30;3.25;;;;;;;27.36;44.88;100928.94;5010911;28;20053;-76
2022/08/01 04:13:25;;;;;;;4.43;3.00;;;;;;;27.36;45.19;100930.81;5009273;28;20045;-76
2022/08/01 04:16:03;;;;;;;4.00;3.08;;;;;;;27.34;45.09;100932.84;5012656;28;20046;-76
2022/08/01 04:18:30;;;;;;;4.78;3.22;;;;;;;27.30;45.63;100935.09;5012185;28;20402;-76
2022/08/01 04:20:58;;;;;;;5.00;3.15;;;;;;;27.26;45.77;100935.63;5011396;28;20053;-76
2022/08/01 04:23:28;;;;;;;5.13;3.50;;;;;;;27.22;45.69;100939.75;5012153;28;20057;-76
2022/08/01 04:25:59;;;;;;;4.60;3.00;;;;;;;27.19;45.62;100937.41;5012122;28;20050;-76
2022/08/01 04:28:29;;;;;;;3.92;3.53;;;;;;;27.14;45.58;100929.78;5010517;28;20061;-76
2022/08/01 04:30:59;;;;;;;4.82;3.17;;;;;;;27.13;45.24;100928.09;5012709;28;20524;-76
2022/08/01 04:33:30;;;;;;;4.15;3.22;;;;;;;27.14;45.21;100931.66;5011994;28;20060;-76
2022/08/01 04:36:01;;;;;;;3.33;3.03;;;;;;;27.15;44.65;100936.09;5012574;28;20493;-75
2022/08/01 04:38:33;;;;;;;4.55;2.78;;;;;;;27.16;44.52;100938.59;4999804;28;20406;-76
2022/08/01 04:41:02;;;;;;;4.57;2.83;;;;;;;27.17;44.43;100936.72;4992462;28;20050;-75
2022/08/01 04:43:37;;;;;;;6.20;3.53;;;;;;;27.15;44.81;100936.09;5002722;28;20055;-76
2022/08/01 04:46:06;;;;;;;4.32;2.70;;;;;;;27.14;45.73;100950.69;5115245;28;20046;-76
2022/08/01 04:48:37;;;;;;;4.35;3.35;;;;;;;27.15;45.93;100941.53;5115104;28;20495;-75
2022/08/01 04:51:11;;;;;;;4.43;3.42;;;;;;;27.14;46.19;100951.50;5115537;28;20043;-75
2022/08/01 04:53:38;;;;;;;4.38;3.15;;;;;;;27.14;46.09;100953.41;5114986;28;20048;-75
2022/08/01 04:56:05;;;;;;;3.92;3.03;;;;;;;27.14;45.71;100948.78;5114694;28;20044;-75
2022/08/01 04:58:33;;;;;;;4.65;2.97;;;;;;;27.15;45.85;100952.38;5113323;28;20051;-75
2022/08/01 05:01:00;;;;;;;3.75;2.80;;;;;;;27.14;45.53;100956.94;5115048;28;20051;-76
2022/08/01 05:03:28;;;;;;;4.25;2.83;;;;;;;27.16;45.36;100954.06;5115024;28;20054;-76
2022/08/01 05:05:55;;;;;;;3.67;3.22;;;;;;;27.17;45.39;100953.03;5114885;28;20047;-76
2022/08/01 05:08:22;;;;;;;5.63;3.03;;;;;;;27.17;45.44;100956.59;5114991;28;20067;-76
2022/08/01 05:10:50;;;;;;;5.78;3.55;;;;;;;27.17;45.64;100955.75;5114620;28;20047;-75
2022/08/01 05:13:17;;;;;;;3.35;3.05;;;;;;;27.17;45.34;100956.59;5028262;28;20065;-75
2022/08/01 05:15:44;;;;;;;5.80;3.08;;;;;;;27.14;45.01;100961.53;5011636;28;20048;-76
2022/08/01 05:18:12;;;;;;;4.60;2.97;;;;;;;27.10;45.46;100956.50;5011278;28;20052;-75
2022/08/01 05:20:41;;;;;;;4.63;3.33;;;;;;;27.08;45.45;100955.78;5009997;28;20057;-76
2022/08/01 05:23:08;;;;;;;5.13;3.25;;;;;;;27.09;45.48;100953.91;5011371;28;20049;-76
2022/08/01 05:25:38;;;;;;;5.90;2.88;;;;;;;27.07;45.34;100962.25;5030127;28;20044;-76
2022/08/01 05:28:24;;;;;;;7.07;3.35;;;;;;;27.02;45.05;100959.22;5113474;28;20047;-75
2022/08/01 05:30:54;;;;;;;4.32;2.90;;;;;;;27.00;44.80;100966.69;5114127;28;20409;-75
2022/08/01 05:33:22;;;;;;;4.35;3.15;;;;;;;26.97;44.53;100969.78;5114627;28;20043;-76
2022/08/01 05:35:49;;;;;;;7.90;2.90;;;;;;;26.97;44.73;100968.94;5114184;28;20384;-76
2022/08/01 05:38:17;;;;;;;3.17;2.60;;;;;;;26.98;44.76;100968.78;5058509;28;20549;-76
2022/08/01 05:40:44;;;;;;;4.03;3.20;;;;;;;27.00;45.00;100974.00;5011467;28;20038;-76
2022/08/01 05:43:11;;;;;;;6.85;2.65;;;;;;;27.03;44.82;100976.38;5011094;28;20038;-76
2022/08/01 05:45:41;;;;;;;4.40;3.00;;;;;;;27.05;44.78;100967.00;5010835;28;20397;-76
2022/08/01 05:48:08;;;;;;;5.25;3.28;;;;;;;27.08;44.94;100974.81;5011420;28;20405;-76
2022/08/01 05:50:35;;;;;;;3.28;2.88;;;;;;;27.10;44.86;100972.81;5009521;28;20061;-75
2022/08/01 05:53:03;;;;;;;4.22;2.83;;;;;;;27.13;44.77;100968.00;5010835;28;20050;-75
2022/08/01 05:55:30;;;;;;;3.92;2.58;;;;;;;27.14;44.91;100969.69;5010818;28;20393;-76
2022/08/01 05:57:58;;;;;;;6.13;2.70;;;;;;;27.16;44.64;100970.38;5009642;28;20065;-76
2022/08/01 06:00:25;;;;;;;3.28;2.42;;;;;;;27.15;44.77;100968.69;5009443;28;20046;-75
2022/08/01 06:02:52;;;;;;;3.65;2.67;;;;;;;27.16;44.56;100976.66;5009917;28;20042;-76
2022/08/01 06:05:20;;;;;;;4.22;2.83;;;;;;;27.17;44.73;100964.75;5010964;28;20048;-76
2022/08/01 06:07:47;;;;;;;4.00;2.70;;;;;;;27.17;45.04;100964.75;5009564;28;20057;-75
2022/08/01 06:10:15;;;;;;;4.65;2.60;;;;;;;27.18;44.83;100966.44;5009252;28;20083;-75
2022/08/01 06:12:42;;;;;;;5.55;2.75;;;;;;;27.18;44.55;100969.16;5010631;28;20042;-75
2022/08/01 06:15:10;;;;;;;6.68;3.15;;;;;;;27.16;44.21;100965.78;5009627;28;20038;-76
2022/08/01 06:17:38;;;;;;;4.15;2.88;;;;;;;27.15;44.44;100971.41;5010369;28;20754;-75
2022/08/01 06:20:06;;;;;;;4.15;3.00;;;;;;;27.11;44.61;100974.47;5010778;28;20053;-77
2022/08/01 06:22:34;;;;;;;5.03;2.65;;;;;;;27.10;44.72;100970.09;5009962;28;20073;-75
2022/08/01 06:25:01;;;;;;;5.95;3.22;;;;;;;27.10;44.83;100963.78;5010567;28;20050;-75
2022/08/01 06:27:29;;;;;;;7.00;2.92;;;;;;;27.11;44.74;100966.34;5010721;28;20050;-75
2022/08/01 06:29:56;;;;;;;4.93;3.03;;;;;;;27.13;45.05;100965.28;5010446;28;20061;-75
2022/08/01 06:32:24;;;;;;;5.03;3.22;;;;;;;27.13;45.27;100976.16;5010532;28;20042;-74
2022/08/01 06:34:54;;;;;;;5.10;3.00;;;;;;;27.10;44.87;100969.22;5041631;28;20050;-74
2022/08/01 06:37:35;;;;;;;3.78;2.85;;;;;;;27.07;45.10;100975.84;5004133;27;20055;-75
2022/08/01 06:40:07;;;;;;;4.40;2.97;;;;;;;27.05;45.12;100968.88;4990628;28;20047;-75
2022/08/01 06:42:41;;;;;;;4.57;3.03;;;;;;;27.00;45.08;100972.13;4990989;28;20054;-76
2022/08/01 06:45:10;;;;;;;4.57;2.53;;;;;;;26.93;45.28;100976.59;5047213;28;20043;-76
2022/08/01 06:47:41;;;;;;;4.18;2.75;;;;;;;26.93;45.29;100981.19;5112462;28;20487;-75
2022/08/01 06:50:10;;;;;;;6.00;3.20;;;;;;;26.87;45.44;100972.72;5112511;28;20526;-75
2022/08/01 06:52:38;;;;;;;4.47;3.40;;;;;;;26.86;45.34;100978.34;5113316;28;20047;-75
2022/08/01 06:55:05;;;;;;;5.25;3.00;;;;;;;26.84;45.51;100977.66;5113440;28;20050;-75
2022/08/01 06:57:32;;;;;;;3.80;2.90;;;;;;;26.83;45.78;100979.53;5112095;28;20051;-75
2022/08/01 07:00:10;;;;;;;6.28;2.50;;;;;;;26.84;45.89;100967.63;5113405;28;20047;-74
2022/08/01 07:02:37;;;;;;;5.20;2.72;;;;;;;26.86;45.75;100971.03;5113376;28;20044;-75
2022/08/01 07:05:05;;;;;;;3.63;2.90;;;;;;;26.86;45.77;100972.91;5113387;28;20047;-75
2022/08/01 07:07:32;;;;;;;4.88;2.72;;;;;;;26.87;45.76;100978.16;5111670;28;20055;-74
2022/08/01 07:10:00;;;;;;;5.53;2.75;;;;;;;26.90;45.60;100973.38;5113487;28;20043;-74
2022/08/01 07:12:27;;;;;;;5.05;2.78;;;;;;;26.92;45.37;100969.47;5113383;28;20433;-74
2022/08/01 07:14:54;;;;;;;4.93;3.00;;;;;;;26.92;44.97;100964.03;5044783;28;20038;-74
2022/08/01 07:17:22;;;;;;;4.40;2.88;;;;;;;26.94;45.04;100974.72;5009291;28;20042;-74
2022/08/01 07:19:49;;;;;;;5.32;3.33;;;;;;;26.96;45.10;100969.97;5010228;28;20050;-76
2022/08/01 07:22:16;;;;;;;4.63;3.33;;;;;;;26.98;45.11;100976.03;5008963;28;20046;-75
2022/08/01 07:24:49;;;;;;;4.03;3.05;;;;;;;26.99;44.96;100975.03;5010650;28;20046;-74
2022/08/01 07:27:21;;;;;;;5.65;3.30;;;;;;;27.01;45.15;100979.25;5078467;28;20040;-74
2022/08/01 07:29:52;;;;;;;6.00;2.95;;;;;;;27.03;45.25;100969.06;5113358;28;20048;-75
2022/08/01 07:32:20;;;;;;;3.65;2.95;;;;;;;27.06;45.32;100974.16;5112866;28;20047;-75
2022/08/01 07:34:47;;;;;;;4.13;3.05;;;;;;;27.08;45.33;100969.38;5116556;28;20047;-76
2022/08/01 07:37:14;;;;;;;3.17;2.70;;;;;;;27.10;45.39;100971.94;5105512;28;20040;-77
2022/08/01 07:39:42;;;;;;;4.70;3.20;;;;;;;27.13;44.67;100971.56;5013658;28;20050;-76
2022/08/01 07:42:09;;;;;;;5.15;2.80;;;;;;;27.16;44.74;100970.38;5011767;28;20046;-77
2022/08/01 07:44:37;;;;;;;6.25;3.25;;;;;;;27.18;45.04;100971.03;5012958;28;20046;-81
2022/08/01 07:47:05;;;;;;;4.25;3.08;;;;;;;27.20;44.81;100964.41;5011856;28;20062;-77
2022/08/01 07:49:33;;;;;;;4.70;3.47;;;;;;;27.21;44.98;100968.81;5013441;28;20050;-76
2022/08/01 07:52:07;;;;;;;3.60;2.80;;;;;;;27.24;45.26;100963.00;5011629;28;20054;-77
2022/08/01 07:54:35;;;;;;;4.88;2.70;;;;;;;27.26;45.08;100960.09;5013130;28;20042;-77
2022/08/01 07:57:03;;;;;;;8.38;3.33;;;;;;;27.27;44.98;100962.66;5011235;28;20050;-79
2022/08/01 07:59:31;;;;;;;3.10;2.80;;;;;;;27.30;44.58;100966.88;5011698;28;20536;-77
2022/08/01 08:01:58;;;;;;;4.95;3.00;;;;;;;27.31;44.32;100968.59;5012735;28;20057;-76
2022/08/01 08:04:27;;;;;;;3.13;2.70;;;;;;;27.33;44.77;100969.22;5012857;28;20045;-76
2022/08/01 08:06:54;;;;;;;4.15;3.08;;;;;;;27.34;44.79;100960.88;5012345;28;20046;-77
2022/08/01 08:09:22;;;;;;;5.38;3.17;;;;;;;27.37;44.32;100962.41;5012435;28;20061;-77
2022/08/01 08:11:50;;;;;;;4.47;2.72;;;;;;;27.38;44.29;100957.81;5012878;28;20046;-80
2022/08/01 08:14:18;;;;;;;4.55;3.20;;;;;;;27.40;44.19;100967.47;5012365;28;20046;-77
2022/08/01 08:16:45;;;;;;;4.18;2.80;;;;;;;27.40;44.35;100964.75;5000833;28;20038;-75
2022/08/01 08:19:13;;;;;;;3.65;2.50;;;;;;;27.43;44.49;100963.53;5012584;28;20046;-75
2022/08/01 08:21:40;;;;;;;3.28;2.75;;;;;;;27.42;44.17;100961.84;5012399;28;20046;-78
2022/08/01 08:24:21;;;;;;;4.82;2.65;;;;;;;27.44;44.21;100957.94;5012288;28;20046;-80
2022/08/01 08:26:55;;;;;;;5.28;3.10;;;;;;;27.46;43.86;100961.31;5012305;28;20069;-77
2022/08/01 08:29:24;;;;;;;3.42;3.00;;;;;;;27.46;44.29;100955.84;5012339;28;20046;-77
2022/08/01 08:31:53;;;;;;;4.20;2.72;;;;;;;27.48;44.00;100953.81;5012083;28;20090;-78
2022/08/01 08:34:20;;;;;;;2.80;2.30;;;;;;;27.49;44.30;100955.50;5012085;28;20056;-77
2022/08/01 08:36:49;;;;;;;3.22;2.70;;;;;;;27.50;44.26;100956.34;5012333;28;20045;-77
2022/08/01 08:39:17;;;;;;;3.08;2.47;;;;;;;27.52;44.56;100971.47;4993242;28;20042;-76
2022/08/01 08:41:46;;;;;;;4.22;2.63;;;;;;;27.53;44.38;100964.13;4991029;28;20057;-77
2022/08/01 08:44:18;;;;;;;3.25;2.95;;;;;;;27.54;44.01;100963.09;4992287;28;20038;-77
2022/08/01 08:46:55;;;;;;;3.65;2.60;;;;;;;27.54;43.90;100954.94;5094228;28;20044;-77
2022/08/01 08:49:26;;;;;;;3.50;2.75;;;;;;;27.57;44.53;100954.59;5115637;28;20136;-78
2022/08/01 08:52:03;;;;;;;3.67;2.50;;;;;;;27.58;44.32;100959.84;5115280;28;20044;-76
2022/08/01 08:54:36;;;;;;;4.43;2.90;;;;;;;27.59;44.45;100961.56;5115609;28;20051;-75
2022/08/01 08:57:05;;;;;;;4.45;2.75;;;;;;;27.61;44.35;100962.19;5114832;28;20047;-75
2022/08/01 08:59:32;;;;;;;3.20;2.53;;;;;;;27.61;44.76;100954.03;5113483;28;20051;-75
2022/08/01 09:01:59;;;;;;;5.07;2.80;;;;;;;27.62;44.38;100952.16;5115251;28;20047;-75
2022/08/01 09:04:27;;;;;;;7.78;2.63;;;;;;;27.63;44.52;100961.16;5113911;28;20047;-75
2022/08/01 09:06:54;;;;;;;6.85;3.17;;;;;;;27.64;44.34;100962.88;5114993;28;20035;-74
2022/08/01 09:09:23;;;;;;;4.70;3.15;;;;;;;27.65;44.08;100954.50;5114721;28;20044;-75
2022/08/01 09:11:50;;;;;;;5.88;2.60;;;;;;;27.66;44.30;100949.91;5112898;28;20052;-77
2022/08/01 09:14:30;;;;;;;3.10;2.63;;;;;;;27.66;44.18;100955.34;5114750;28;20059;-76
2022/08/01 09:17:10;;;;;;;4.30;2.60;;;;;;;27.69;43.98;100960.44;5045352;28;20049;-76
2022/08/01 09:19:43;;;;;;;4.47;2.78;;;;;;;27.70;44.48;100948.53;5010171;28;20401;-75
2022/08/01 09:22:17;;;;;;;;;;;;;;;27.71;44.15;100951.06;5010314;28;20053;-75
2022/08/01 09:25:08;;;;;;;4.68;2.55;;;;;;;27.73;43.95;100951.75;5011221;28;19928;-77
2022/08/01 09:27:38;;;;;;;4.18;2.58;;;;;;;27.74;43.78;100942.56;5047146;28;20051;-75
2022/08/01 09:30:10;;;;;;;3.50;2.72;;;;;;;27.76;44.61;100948.66;5114967;28;20059;-77
2022/08/01 09:32:54;;;;;;;4.63;3.10;;;;;;;27.78;44.80;100951.19;5112856;28;20047;-75
2022/08/01 09:35:34;;;;;;;3.75;2.97;;;;;;;27.79;44.31;100944.72;5114525;28;20050;-75
2022/08/01 09:38:17;;;;;;;4.10;2.90;;;;;;;27.81;44.64;100942.66;5064938;28;20064;-79
2022/08/01 09:41:07;;;;;;;3.75;3.13;;;;;;;27.80;44.83;100936.38;5010693;28;20462;-78
2022/08/01 09:43:35;;;;;;;2.95;2.47;;;;;;;27.83;44.86;100940.59;5011400;28;20071;-78
2022/08/01 09:46:11;;;;;;;3.90;2.58;;;;;;;27.83;44.59;100940.59;5011090;28;20046;-78
2022/08/01 09:48:44;;;;;;;5.93;3.03;;;;;;;27.82;44.73;100930.75;5011639;28;20054;-78
2022/08/01 09:51:31;;;;;;;4.57;3.10;;;;;;;27.84;45.41;100937.72;5011391;28;20046;-77
2022/08/01 09:54:32;;;;;;;4.97;3.15;;;;;;;27.84;44.93;100934.97;5011171;28;20470;-80
2022/08/01 09:57:19;;;;;;;4.50;3.50;;;;;;;27.85;44.73;100933.09;5008635;28;20049;-78
2022/08/01 10:00:23;;;;;;;;;;;;;;;;;;;;;
2022/08/01 10:03:18;;;;;;;4.40;2.95;;;;;;;27.92;44.64;100928.63;5011414;28;20046;-76
2022/08/01 10:05:47;;;;;;;3.50;2.88;;;;;;;27.93;45.00;100924.84;5010844;28;20057;-76
2022/08/01 10:08:17;;;;;;;5.43;2.90;;;;;;;27.92;45.11;100917.72;5010502;28;20486;-76
2022/08/01 10:11:08;;;;;;;3.85;2.70;;;;;;;27.94;45.37;100917.53;5009577;28;20050;-77
2022/08/01 10:13:39;;;;;;;3.25;2.60;;;;;;;27.92;45.91;100917.72;5011117;28;20500;-77
2022/08/01 10:16:07;;;;;;;4.47;2.83;;;;;;;27.93;45.86;100913.13;5010915;28;20049;-77
2022/08/01 10:18:35;;;;;;;4.07;2.90;;;;;;;27.92;46.26;100915.00;5009397;28;20370;-77
2022/08/01 10:21:04;;;;;;;3.15;2.45;;;;;;;27.93;46.30;100904.97;5010742;28;20054;-77
2022/08/01 10:23:38;;;;;;;3.75;2.55;;;;;;;27.93;46.26;100899.53;5011003;28;20485;-77
2022/08/01 10:26:09;;;;;;;6.57;3.20;;;;;;;27.93;45.85;100897.66;5010731;28;20049;-77
2022/08/01 10:28:38;;;;;;;3.28;2.60;;;;;;;27.94;46.05;100899.31;5010242;28;20104;-77
2022/08/01 10:31:08;;;;;;;4.90;2.78;;;;;;;27.93;46.09;100891.38;5011691;28;20041;-77
2022/08/01 10:33:41;;;;;;;7.53;3.13;;;;;;;27.92;45.91;100895.97;5011010;28;20050;-78
2022/08/01 10:36:20;;;;;;;3.95;2.65;;;;;;;27.94;45.29;100899.31;5009485;28;20054;-79
2022/08/01 10:38:49;;;;;;;3.38;2.53;;;;;;;27.95;45.73;100892.00;4995818;28;20425;-79
2022/08/01 10:41:19;;;;;;;5.85;3.00;;;;;;;27.94;45.18;100888.44;4990164;28;20054;-79
2022/08/01 10:43:46;;;;;;;3.25;2.63;;;;;;;27.95;45.55;100883.84;4990906;28;20043;-79
2022/08/01 10:46:15;;;;;;;4.88;2.75;;;;;;;27.95;45.47;100879.25;4992277;28;20050;-75
2022/08/01 10:48:46;;;;;;;3.35;2.78;;;;;;;27.95;45.36;100878.41;5010149;28;20046;-77
2022/08/01 10:51:15;;;;;;;4.55;2.70;;;;;;;27.96;44.82;100874.66;5009164;28;20050;-77
2022/08/01 10:53:53;;;;;;;3.78;2.85;;;;;;;27.96;45.07;100870.06;5010451;28;20045;-77
2022/08/01 10:56:23;;;;;;;4.43;2.60;;;;;;;27.98;44.89;100872.59;5010291;28;20046;-77
2022/08/01 10:59:24;;;;;;;4.18;2.38;;;;;;;27.97;45.25;100860.88;5010584;28;20042;-77
2022/08/01 11:02:29;;;;;;;3.45;2.80;;;;;;;27.98;45.88;100862.53;5010467;28;20057;-77
2022/08/01 11:05:06;;;;;;;4.00;2.67;;;;;;;27.99;45.92;100863.38;4992650;28;20060;-77
2022/08/01 11:07:45;;;;;;;6.50;2.65;;;;;;;28.00;45.41;100857.78;5011534;28;20057;-77
2022/08/01 11:10:28;;;;;;;3.78;2.70;;;;;;;28.00;45.69;100852.34;5013664;28;20401;-75
2022/08/01 11:12:56;;;;;;;4.63;2.65;;;;;;;28.00;46.03;100854.22;5013710;28;20050;-78
2022/08/01 11:15:25;;;;;;;3.38;2.70;;;;;;;28.01;46.22;100848.56;5012021;28;20054;-78
2022/08/01 11:17:59;;;;;;;3.63;2.30;;;;;;;28.01;45.92;100845.84;5012644;28;20042;-78
2022/08/01 11:20:32;;;;;;;3.30;2.40;;;;;;;28.01;45.96;100840.41;5012763;28;20042;-78
2022/08/01 11:23:00;;;;;;;3.75;2.55;;;;;;;28.03;46.09;100838.31;5013615;28;20494;-78
2022/08/01 11:25:38;;;;;;;4.35;2.70;;;;;;;28.02;46.04;100833.91;5013414;28;20057;-77
2022/08/01 11:28:29;;;;;;;6.15;2.70;;;;;;;28.03;45.86;100832.03;5043419;28;20039;-77
2022/08/01 11:31:08;;;;;;;4.80;2.60;;;;;;;28.03;45.98;100821.16;5115617;28;20048;-77
2022/08/01 11:33:47;;;;;;;5.03;2.60;;;;;;;28.03;45.98;100819.28;5117086;28;20109;-78
2022/08/01 11:36:15;;;;;;;3.53;2.65;;;;;;;28.03;46.18;100815.72;5115349;28;20059;-77
2022/08/01 11:38:47;;;;;;;5.80;2.58;;;;;;;28.03;46.11;100811.09;5041946;28;20508;-78
2022/08/01 11:41:26;;;;;;;4.57;2.33;;;;;;;28.04;46.48;100806.53;5012454;28;20050;-77
2022/08/01 11:44:08;;;;;;;5.00;2.50;;;;;;;28.04;47.39;100814.69;5011901;28;20050;-78
2022/08/01 11:46:47;;;;;;;;;;;;;;;28.03;47.66;100804.81;5012064;28;20050;-76
2022/08/01 11:49:23;;;;;;;4.90;2.67;;;;;;;28.04;50.36;100809.25;5004280;28;19922;-74